Time;durP1;ratioP1;P1;durP2;ratioP2;P2;SDS_P1;SDS_P2;PMS_P1;PMS_P2;Temp;Humidity;BMP_temperature;BMP_pressure;BME280_temperature;BME280_humidity;BME280_pressure;Samples;Min_cycle;Max_cycle;Signal;HPM_P1;HPM_P2
2023/01/24 00:00:02;;;;;;;22.70;12.00;;;;;;;-0.23;79.00;101836.20;105275;1261;71662;-77
2023/01/24 00:02:31;;;;;;;19.70;11.70;;;;;;;-0.28;78.91;101830.41;105593;1254;60940;-74
2023/01/24 00:04:59;;;;;;;22.00;13.10;;;;;;;-0.33;78.60;101831.29;105807;1254;60434;-81
2023/01/24 00:07:26;;;;;;;20.90;11.60;;;;;;;-0.36;78.54;101830.68;106451;1254;73831;-80
2023/01/24 00:09:53;;;;;;;19.90;12.40;;;;;;;-0.41;78.50;101834.29;106288;1254;69278;-78
2023/01/24 00:12:20;;;;;;;20.70;13.00;;;;;;;-0.45;78.43;101830.92;105969;1256;72990;-81
2023/01/24 00:14:47;;;;;;;18.40;11.90;;;;;;;-0.50;78.58;101831.77;106021;1253;60443;-80
2023/01/24 00:17:14;;;;;;;19.00;11.00;;;;;;;-0.52;78.42;101827.15;105679;1254;60356;-78
2023/01/24 00:19:41;;;;;;;19.90;10.60;;;;;;;-0.42;78.18;101826.16;105835;1253;73830;-77
2023/01/24 00:22:08;;;;;;;22.20;12.10;;;;;;;-0.39;78.18;101822.91;107112;1253;71976;-78
2023/01/24 00:24:35;;;;;;;18.30;11.50;;;;;;;-0.41;78.08;101821.08;107351;1254;71563;-77
2023/01/24 00:27:02;;;;;;;18.60;11.30;;;;;;;-0.43;78.24;101819.55;108185;1253;60347;-78
2023/01/24 00:29:29;;;;;;;19.20;12.80;;;;;;;-0.43;78.23;101817.10;108414;1253;60406;-78
2023/01/24 00:31:56;;;;;;;23.90;11.90;;;;;;;-0.43;78.21;101819.02;108829;1254;73623;-78
2023/01/24 00:34:24;;;;;;;22.70;12.70;;;;;;;-0.44;78.40;101817.34;108428;1253;70156;-77
2023/01/24 00:36:53;;;;;;;21.30;12.50;;;;;;;-0.47;78.60;101815.15;107711;1254;72440;-79
2023/01/24 00:39:20;;;;;;;18.30;11.00;;;;;;;-0.40;78.57;101812.52;105734;1253;60778;-79
2023/01/24 00:41:47;;;;;;;19.70;12.20;;;;;;;-0.34;78.56;101816.86;106979;1253;61298;-80
2023/01/24 00:44:15;;;;;;;19.00;11.90;;;;;;;-0.38;78.93;101817.34;108541;1254;73735;-80
2023/01/24 00:46:41;;;;;;;27.70;12.20;;;;;;;-0.43;79.20;101819.92;108852;1252;70241;-78
2023/01/24 00:49:08;;;;;;;20.80;12.90;;;;;;;-0.48;79.23;101820.08;108757;1253;72644;-79
2023/01/24 00:51:37;;;;;;;20.90;12.50;;;;;;;-0.52;79.30;101818.98;107299;1254;60450;-78
2023/01/24 00:54:04;;;;;;;22.70;12.10;;;;;;;-0.55;79.56;101820.83;106100;1251;62734;-79
2023/01/24 00:56:31;;;;;;;21.50;12.10;;;;;;;-0.61;79.44;101818.89;105729;1251;71636;-80
2023/01/24 00:58:58;;;;;;;18.80;10.90;;;;;;;-0.54;79.50;101817.81;105711;1251;69380;-79
2023/01/24 01:01:24;;;;;;;22.30;11.80;;;;;;;-0.47;79.14;101817.42;105725;1254;72990;-78
2023/01/24 01:03:56;;;;;;;21.60;12.40;;;;;;;-0.52;79.32;101817.41;105709;1254;60479;-80
2023/01/24 01:06:23;;;;;;;20.10;12.00;;;;;;;-0.56;79.41;101816.31;105535;1259;60696;-80
2023/01/24 01:08:50;;;;;;;21.80;13.30;;;;;;;-0.60;79.40;101815.18;106381;1255;72598;-82
2023/01/24 01:11:18;;;;;;;20.00;10.90;;;;;;;-0.64;79.44;101815.51;106094;1254;70461;-81
2023/01/24 01:13:48;;;;;;;22.80;12.90;;;;;;;-0.73;79.38;101819.42;106277;1253;71809;-83
2023/01/24 01:16:18;;;;;;;19.10;11.30;;;;;;;-0.79;79.65;101818.17;107587;1252;60515;-81
2023/01/24 01:18:46;;;;;;;21.10;11.50;;;;;;;-0.71;79.27;101820.73;108070;1251;60411;-82
2023/01/24 01:21:15;;;;;;;23.50;12.20;;;;;;;-0.63;79.06;101816.69;105946;1256;74946;-80
2023/01/24 01:23:42;;;;;;;20.20;12.30;;;;;;;-0.68;78.89;101816.48;105767;1254;69371;-80
2023/01/24 01:26:15;;;;;;;19.10;11.90;;;;;;;-0.73;79.07;101816.98;105584;1254;73135;-75
2023/01/24 01:28:42;;;;;;;22.40;13.00;;;;;;;-0.75;79.25;101812.69;106017;1254;60545;-77
2023/01/24 01:31:09;;;;;;;27.20;13.10;;;;;;;-0.78;79.28;101816.26;105777;1254;61157;-80
2023/01/24 01:33:35;;;;;;;18.80;12.10;;;;;;;-0.82;79.05;101817.23;106177;1257;72609;-78
2023/01/24 01:36:02;;;;;;;21.50;12.80;;;;;;;-0.86;79.20;101811.08;106305;1251;69234;-75
2023/01/24 01:38:29;;;;;;;21.90;11.80;;;;;;;-0.77;79.08;101813.27;106654;1257;74122;-78
2023/01/24 01:40:56;;;;;;;19.40;11.30;;;;;;;-0.71;78.97;101812.92;108109;1254;60223;-76
2023/01/24 01:43:28;;;;;;;21.40;12.40;;;;;;;-0.75;79.13;101810.09;107645;1253;60330;-76
2023/01/24 01:45:58;;;;;;;23.10;12.80;;;;;;;-0.80;79.36;101808.83;107396;1251;72542;-78
2023/01/24 01:48:36;;;;;;;23.50;13.80;;;;;;;-0.85;79.46;101806.88;107330;1254;71317;-79
2023/01/24 01:51:12;;;;;;;19.90;11.80;;;;;;;-0.91;79.57;101806.36;106836;1254;71548;-80
2023/01/24 01:54:16;;;;;;;19.60;12.50;;;;;;;-0.94;79.67;101805.75;106625;1254;62402;-80
2023/01/24 01:57:09;;;;;;;;;;;;;;;-0.83;79.57;101802.66;106624;1253;60473;-80
2023/01/24 01:59:48;;;;;;;22.60;11.70;;;;;;;-0.85;79.56;101798.72;109160;1253;73613;-81
2023/01/24 02:02:15;;;;;;;22.20;11.70;;;;;;;-0.93;79.80;101801.88;108991;1253;71663;-79
2023/01/24 02:04:47;;;;;;;20.90;10.50;;;;;;;-0.98;79.87;101801.70;108839;1254;70709;-81
2023/01/24 02:07:20;;;;;;;28.30;13.50;;;;;;;-1.02;80.02;101808.91;106095;1251;60558;-81
2023/01/24 02:09:49;;;;;;;24.60;12.50;;;;;;;-1.09;80.13;101804.08;106246;1251;60478;-81
2023/01/24 02:12:27;;;;;;;25.00;12.70;;;;;;;-1.14;80.55;101803.68;106152;1255;74812;-80
2023/01/24 02:17:42;;;;;;;22.80;12.90;;;;;;;-1.01;80.34;101799.52;106476;1251;72421;-80
2023/01/24 02:20:15;;;;;;;26.80;13.10;;;;;;;-1.08;80.46;101802.13;108135;1251;59920;-82
2023/01/24 02:23:06;;;;;;;19.10;12.20;;;;;;;-1.14;80.74;101806.99;107285;1251;60546;-81
2023/01/24 02:25:58;;;;;;;27.10;13.80;;;;;;;-1.18;80.98;101810.94;105947;1255;75071;-78
2023/01/24 02:28:26;;;;;;;20.70;12.40;;;;;;;-1.25;81.22;101810.95;105743;1251;71105;-81
2023/01/24 02:30:57;;;;;;;29.30;13.20;;;;;;;-1.31;81.30;101809.22;105894;1251;72692;-80
2023/01/24 02:33:24;;;;;;;20.60;12.00;;;;;;;-1.27;81.23;101809.27;106292;1251;61594;-83
2023/01/24 02:35:51;;;;;;;23.10;12.90;;;;;;;-1.20;81.33;101808.23;106389;1251;60582;-81
2023/01/24 02:38:23;;;;;;;26.00;12.00;;;;;;;-1.23;81.65;101806.71;105735;1253;73143;-79
2023/01/24 02:40:52;;;;;;;20.80;12.00;;;;;;;-1.23;81.88;101806.72;105824;1251;69636;-81
2023/01/24 02:43:20;;;;;;;25.20;13.80;;;;;;;-1.23;81.94;101809.34;105869;1260;70569;-80
2023/01/24 02:45:47;;;;;;;25.20;13.40;;;;;;;-1.27;81.98;101808.06;106144;1253;60399;-78
2023/01/24 02:48:14;;;;;;;26.10;12.70;;;;;;;-1.31;81.93;101808.69;108306;1254;59267;-77
2023/01/24 02:53:31;;;;;;;20.40;11.70;;;;;;;-1.11;81.77;101807.96;108372;1256;71160;-77
2023/01/24 02:58:52;;;;;;;27.20;13.50;;;;;;;-1.15;81.81;101809.64;106324;1251;60768;-79
2023/01/24 03:01:20;;;;;;;18.10;11.30;;;;;;;-1.23;81.98;101807.23;106159;1251;60459;-78
2023/01/24 03:03:51;;;;;;;22.90;13.10;;;;;;;-1.31;82.23;101810.23;107943;1254;73219;-79
2023/01/24 03:06:18;;;;;;;25.70;12.10;;;;;;;-1.37;82.22;101806.94;108297;1252;70060;-78
2023/01/24 03:08:45;;;;;;;21.40;12.30;;;;;;;-1.32;82.14;101807.66;105629;1256;73858;-77
2023/01/24 03:11:18;;;;;;;21.30;13.00;;;;;;;-1.21;82.26;101814.84;105801;1251;60558;-78
2023/01/24 03:35:58;;;;;;;29.60;14.10;;;;;;;-1.39;82.75;101812.02;105785;1251;73679;-79
2023/01/24 03:41:18;;;;;;;25.90;14.10;;;;;;;-1.50;82.65;101804.15;105908;1254;59423;-77
2023/01/24 03:43:45;;;;;;;22.40;12.70;;;;;;;-1.55;82.79;101800.80;106196;1252;72846;-80
2023/01/24 03:46:13;;;;;;;26.70;14.40;;;;;;;-1.46;82.86;101802.29;106155;1252;70020;-78
2023/01/24 03:48:50;;;;;;;26.80;14.30;;;;;;;-1.39;82.62;101804.38;106944;1256;72855;-78
2023/01/24 03:54:04;;;;;;;25.40;14.80;;;;;;;-1.46;82.90;101808.04;106852;1251;60116;-78
2023/01/24 03:56:38;;;;;;;32.00;16.00;;;;;;;-1.51;82.74;101805.73;107855;1255;73906;-78
2023/01/24 03:59:05;;;;;;;28.50;14.90;;;;;;;-1.56;82.68;101808.31;108165;1254;69394;-78
2023/01/24 04:01:33;;;;;;;31.30;14.60;;;;;;;-1.61;82.85;101808.95;108323;1251;71452;-82
2023/01/24 04:04:11;;;;;;;23.30;14.90;;;;;;;-1.55;82.70;101810.19;107594;1251;60940;-81
2023/01/24 04:06:38;;;;;;;24.40;13.70;;;;;;;-1.51;82.72;101813.55;106969;1253;60644;-80
2023/01/24 04:09:06;;;;;;;24.40;14.60;;;;;;;-1.55;82.82;101815.56;106364;1254;74605;-82
2023/01/24 04:11:34;;;;;;;24.70;14.80;;;;;;;-1.61;82.97;101812.77;106339;1251;70310;-80
2023/01/24 04:14:06;;;;;;;25.70;14.50;;;;;;;-1.66;83.01;101813.75;106020;1256;71741;-80
2023/01/24 04:16:34;;;;;;;24.90;15.20;;;;;;;-1.74;83.09;101811.70;105954;1251;60472;-81
2023/01/24 04:19:15;;;;;;;25.40;13.90;;;;;;;-1.80;83.19;101809.77;105924;1254;60562;-84
2023/01/24 04:21:42;;;;;;;24.60;13.00;;;;;;;-1.71;83.22;101810.77;105839;1254;73918;-81
2023/01/24 04:24:10;;;;;;;24.50;12.90;;;;;;;-1.65;82.99;101815.98;106195;1255;70447;-81
2023/01/24 04:26:38;;;;;;;23.80;14.50;;;;;;;-1.66;83.19;101810.63;108251;1258;72513;-79
2023/01/24 04:29:07;;;;;;;24.90;13.90;;;;;;;-1.67;83.34;101810.47;109258;1251;59161;-83
2023/01/24 04:31:37;;;;;;;23.20;14.40;;;;;;;-1.69;83.16;101811.23;109175;1251;59368;-78
2023/01/24 04:34:12;;;;;;;28.80;16.10;;;;;;;-1.73;83.22;101813.77;107907;1251;73579;-78
2023/01/24 04:36:39;;;;;;;29.60;16.90;;;;;;;-1.77;83.14;101816.30;108068;1251;70347;-80
2023/01/24 04:39:09;;;;;;;25.10;14.90;;;;;;;-1.81;83.38;101818.13;105857;1257;71723;-79
2023/01/24 04:41:46;;;;;;;27.90;15.30;;;;;;;-1.71;83.10;101817.88;105959;1251;282304;-81
2023/01/24 04:45:00;;;;;;;22.40;14.60;;;;;;;-1.62;83.01;101815.23;103014;1291;600141;-80
2023/01/24 04:47:28;;;;;;;28.60;17.00;;;;;;;-1.67;83.16;101818.30;105878;1266;60762;-84
2023/01/24 04:49:57;;;;;;;28.80;14.90;;;;;;;-1.69;83.29;101816.45;105257;1264;61293;-80
2023/01/24 04:52:26;;;;;;;27.60;14.70;;;;;;;-1.73;83.32;101822.98;104890;1266;73244;-81
2023/01/24 04:55:00;;;;;;;28.20;15.40;;;;;;;-1.79;83.36;101825.39;104916;1265;70651;-80
2023/01/24 04:57:29;;;;;;;25.80;14.40;;;;;;;-1.83;83.54;101828.78;104977;1269;234828;-84
2023/01/24 04:59:59;;;;;;;29.60;14.70;;;;;;;-1.75;83.43;101824.77;105724;1263;62230;-80
2023/01/24 05:02:32;;;;;;;27.70;15.30;;;;;;;-1.67;83.32;101825.08;106422;1257;61359;-75
2023/01/24 05:05:02;;;;;;;30.30;16.90;;;;;;;-1.69;83.54;101830.18;106895;1255;72689;-73
2023/01/24 05:07:30;;;;;;;27.10;16.40;;;;;;;-1.73;83.52;101824.54;106205;1256;70419;-75
2023/01/24 05:10:05;;;;;;;25.00;15.30;;;;;;;-1.76;83.42;101830.35;105412;1257;73862;-76
2023/01/24 05:12:34;;;;;;;27.80;15.70;;;;;;;-1.82;83.34;101825.95;105508;1259;59648;-76
2023/01/24 05:15:08;;;;;;;25.40;15.10;;;;;;;-1.86;83.36;101828.50;105377;1256;60683;-76
2023/01/24 05:17:38;;;;;;;26.70;15.20;;;;;;;-1.76;83.34;101830.02;105905;1257;73172;-76
2023/01/24 05:20:08;;;;;;;30.50;15.70;;;;;;;-1.68;83.17;101829.62;105746;1253;69273;-75
2023/01/24 05:22:37;;;;;;;27.40;16.40;;;;;;;-1.71;83.13;101831.27;105776;1257;73676;-75
2023/01/24 05:25:06;;;;;;;29.00;16.40;;;;;;;-1.73;83.38;101833.06;105742;1251;59615;-76
2023/01/24 05:27:35;;;;;;;28.90;17.30;;;;;;;-1.76;83.44;101834.33;105759;1256;59625;-74
2023/01/24 05:30:06;;;;;;;32.40;17.50;;;;;;;-1.81;83.30;101832.36;105685;1253;73215;-75
2023/01/24 05:32:35;;;;;;;27.80;15.70;;;;;;;-1.85;83.31;101832.30;105719;1251;69738;-75
2023/01/24 05:35:04;;;;;;;25.20;15.10;;;;;;;-1.81;83.01;101831.15;105842;1257;73645;-74
2023/01/24 05:37:32;;;;;;;25.90;15.20;;;;;;;-1.77;82.85;101834.89;105662;1254;59989;-74
2023/01/24 05:40:01;;;;;;;26.80;15.20;;;;;;;-1.83;83.16;101831.21;105728;1251;60844;-74
2023/01/24 05:42:30;;;;;;;28.60;16.00;;;;;;;-1.89;83.27;101828.23;105730;1256;73076;-74
2023/01/24 05:45:01;;;;;;;30.80;16.20;;;;;;;-1.96;83.50;101833.09;105620;1251;70446;-75
2023/01/24 05:47:29;;;;;;;28.00;14.70;;;;;;;-2.03;83.49;101835.68;105630;1257;72743;-78
2023/01/24 05:49:58;;;;;;;24.10;15.20;;;;;;;-2.05;83.53;101835.91;105646;1253;61987;-76
2023/01/24 05:52:29;;;;;;;25.00;14.20;;;;;;;-1.97;83.48;101837.45;105709;1250;61112;-76
2023/01/24 05:54:57;;;;;;;31.50;14.80;;;;;;;-1.97;83.74;101834.67;105650;1257;74180;-76
2023/01/24 05:57:31;;;;;;;27.20;15.40;;;;;;;-1.99;83.95;101840.63;105687;1254;71726;-75
2023/01/24 06:00:18;;;;;;;27.70;15.50;;;;;;;-2.03;84.07;101841.25;106779;1254;72874;-75
2023/01/24 06:03:04;;;;;;;29.40;17.30;;;;;;;-2.08;83.85;101846.41;106864;1251;59621;-75
2023/01/24 06:05:32;;;;;;;31.30;17.80;;;;;;;-2.15;83.95;101844.98;106196;1251;59734;-78
2023/01/24 06:08:03;;;;;;;24.90;15.40;;;;;;;-2.09;83.90;101848.13;106584;1255;74239;-76
2023/01/24 06:10:31;;;;;;;25.70;16.00;;;;;;;-2.04;83.85;101848.02;106588;1250;72141;-75
2023/01/24 06:13:03;;;;;;;26.80;15.00;;;;;;;-2.08;84.18;101847.08;108371;1250;72600;-76
2023/01/24 06:15:31;;;;;;;26.90;16.70;;;;;;;-2.10;84.24;101846.95;107384;1254;61067;-75
2023/01/24 06:18:00;;;;;;;31.20;16.60;;;;;;;-2.13;84.18;101849.11;105818;1252;59824;-76
2023/01/24 06:20:28;;;;;;;29.00;16.10;;;;;;;-2.20;84.17;101852.92;106018;1255;72704;-77
2023/01/24 06:23:05;;;;;;;28.30;16.30;;;;;;;-2.25;84.32;101852.34;105723;1251;69539;-76
2023/01/24 06:25:37;;;;;;;24.60;15.30;;;;;;;-2.16;83.88;101851.96;105866;1253;71159;-77
2023/01/24 06:28:05;;;;;;;28.50;16.60;;;;;;;-2.11;83.93;101849.24;105874;1251;59636;-77
2023/01/24 06:30:35;;;;;;;27.30;17.40;;;;;;;-2.15;83.96;101853.84;105573;1252;59569;-75
2023/01/24 06:33:21;;;;;;;29.80;16.90;;;;;;;-2.20;84.23;101856.55;105679;1256;71692;-73
2023/01/24 06:36:41;;;;;;;30.10;17.60;;;;;;;-2.22;84.40;101859.23;105785;1252;70897;-75
2023/01/24 06:39:14;;;;;;;32.20;17.00;;;;;;;-2.29;84.17;101857.63;105606;1251;73885;-76
2023/01/24 06:41:43;;;;;;;30.10;15.60;;;;;;;-2.25;84.15;101861.35;106022;1253;61097;-76
2023/01/24 06:44:11;;;;;;;34.20;19.10;;;;;;;-2.17;84.17;101864.98;105873;1252;60354;-76
2023/01/24 06:46:39;;;;;;;29.50;16.60;;;;;;;-2.19;84.29;101862.45;107171;1252;70728;-76
2023/01/24 06:49:10;;;;;;;29.80;17.30;;;;;;;-2.20;84.65;101863.51;108112;1254;69793;-78
2023/01/24 06:51:38;;;;;;;28.00;17.50;;;;;;;-2.19;84.73;101866.95;108562;1257;71104;-76
2023/01/24 06:54:08;;;;;;;27.50;17.30;;;;;;;-2.20;84.51;101869.77;108272;1256;59571;-75
2023/01/24 06:56:36;;;;;;;28.10;17.80;;;;;;;-2.19;84.50;101868.00;105784;1253;59762;-73
2023/01/24 06:59:04;;;;;;;29.70;17.10;;;;;;;-2.08;84.14;101868.10;106033;1254;72959;-76
2023/01/24 07:01:33;;;;;;;30.30;17.40;;;;;;;-1.99;83.83;101870.85;106228;1253;69725;-76
2023/01/24 07:04:02;;;;;;;29.40;18.10;;;;;;;-2.06;83.79;101869.77;105942;1252;72871;-78
2023/01/24 07:06:30;;;;;;;33.40;17.30;;;;;;;-2.13;84.23;101874.81;105997;1251;59681;-79
2023/01/24 07:09:00;;;;;;;30.80;19.00;;;;;;;-2.17;84.41;101872.46;106204;1251;60248;-78
2023/01/24 07:11:28;;;;;;;31.60;18.70;;;;;;;-2.17;84.71;101870.20;106692;1252;71779;-77
2023/01/24 07:13:56;;;;;;;29.50;17.80;;;;;;;-2.13;84.66;101872.91;106431;1254;69963;-78
2023/01/24 07:16:25;;;;;;;31.10;17.00;;;;;;;-2.02;83.98;101875.09;106045;1251;72541;-79
2023/01/24 07:18:54;;;;;;;28.50;18.20;;;;;;;-1.95;83.70;101874.41;108146;1250;60727;-77
2023/01/24 07:21:22;;;;;;;32.40;18.70;;;;;;;-1.97;83.71;101872.35;108221;1251;61151;-77
2023/01/24 07:23:52;;;;;;;33.90;19.50;;;;;;;-2.01;83.77;101874.37;107099;1253;73795;-78
2023/01/24 07:26:20;;;;;;;29.90;17.60;;;;;;;-2.05;83.98;101873.75;105684;1250;72243;-79
2023/01/24 07:28:50;;;;;;;30.60;19.60;;;;;;;-2.04;84.18;101869.58;106264;1255;73783;-78
2023/01/24 07:31:18;;;;;;;29.50;19.00;;;;;;;-2.05;84.09;101873.23;106267;1250;60425;-78
2023/01/24 07:33:48;;;;;;;31.70;17.40;;;;;;;-1.95;83.82;101876.30;105737;1250;61455;-78
2023/01/24 07:36:16;;;;;;;27.90;17.80;;;;;;;-1.87;83.45;101880.80;105972;1250;71945;-79
2023/01/24 07:38:44;;;;;;;28.50;18.20;;;;;;;-1.89;83.57;101880.34;105879;1250;70745;-79
2023/01/24 07:41:12;;;;;;;32.90;18.80;;;;;;;-1.96;83.54;101885.00;105944;1253;72946;-79
2023/01/24 07:43:43;;;;;;;32.90;18.70;;;;;;;-2.01;83.95;101881.64;106432;1251;59532;-78
2023/01/24 07:46:11;;;;;;;32.30;19.30;;;;;;;-2.04;83.79;101880.52;107677;1251;59604;-77
2023/01/24 07:48:40;;;;;;;32.30;20.10;;;;;;;-2.07;83.96;101881.27;105989;1256;74183;-77
2023/01/24 07:51:09;;;;;;;35.60;20.70;;;;;;;-1.98;83.73;101882.98;105593;1250;71450;-76
2023/01/24 07:53:37;;;;;;;35.80;22.00;;;;;;;-1.87;83.75;101884.28;105764;1256;72892;-77
2023/01/24 07:56:06;;;;;;;37.10;23.00;;;;;;;-1.88;83.78;101882.02;105830;1255;59737;-78
2023/01/24 07:58:43;;;;;;;35.90;22.70;;;;;;;-1.90;83.85;101880.87;106118;1251;59998;-78
2023/01/24 08:01:20;;;;;;;42.20;25.60;;;;;;;-1.94;83.79;101880.63;106072;1250;72138;-75
2023/01/24 08:03:49;;;;;;;34.20;21.60;;;;;;;-1.97;84.04;101881.75;105792;1256;70372;-74
2023/01/24 08:06:18;;;;;;;32.50;19.60;;;;;;;-1.97;83.94;101883.31;105753;1249;71890;-76
2023/01/24 08:08:47;;;;;;;27.90;16.70;;;;;;;-1.88;83.53;101884.30;106393;1251;61155;-75
2023/01/24 08:11:17;;;;;;;25.30;17.30;;;;;;;-1.82;83.28;101885.73;106076;1250;59669;-75
2023/01/24 08:13:45;;;;;;;23.50;16.20;;;;;;;-1.87;83.29;101883.75;106558;1253;72002;-75
2023/01/24 08:16:14;;;;;;;31.00;15.60;;;;;;;-1.94;83.30;101883.06;105835;1251;69093;-75
2023/01/24 08:18:44;;;;;;;29.70;17.30;;;;;;;-2.00;83.32;101880.41;105924;1252;71916;-74
2023/01/24 08:21:12;;;;;;;36.30;20.20;;;;;;;-2.02;83.55;101880.83;105888;1250;60806;-76
2023/01/24 08:23:41;;;;;;;30.40;16.80;;;;;;;-2.02;83.75;101875.94;105927;1250;59599;-76
2023/01/24 08:26:10;;;;;;;26.10;17.00;;;;;;;-1.90;83.45;101875.84;106390;1254;73522;-74
2023/01/24 08:28:38;;;;;;;26.00;16.10;;;;;;;-1.79;83.05;101876.46;106773;1250;69571;-75
2023/01/24 08:31:07;;;;;;;29.40;17.50;;;;;;;-1.78;83.17;101875.23;106427;1256;72004;-76
2023/01/24 08:33:37;;;;;;;31.60;17.40;;;;;;;-1.76;83.31;101869.63;105899;1255;59613;-75
2023/01/24 08:36:06;;;;;;;33.80;19.40;;;;;;;-1.75;83.36;101869.93;105949;1250;59667;-77
2023/01/24 08:38:34;;;;;;;35.50;19.90;;;;;;;-1.75;83.25;101867.33;105747;1255;73133;-76
2023/01/24 08:41:03;;;;;;;29.50;18.60;;;;;;;-1.77;83.24;101871.71;105830;1251;70302;-76
2023/01/24 08:43:34;;;;;;;33.10;19.80;;;;;;;-1.80;83.13;101870.91;106032;1253;72583;-75
2023/01/24 08:46:02;;;;;;;35.60;19.20;;;;;;;-1.72;82.86;101871.78;105912;1251;62236;-75
2023/01/24 08:48:31;;;;;;;32.80;18.60;;;;;;;-1.66;82.77;101868.86;105755;1251;59738;-75
2023/01/24 08:51:02;;;;;;;30.60;18.20;;;;;;;-1.70;82.92;101866.33;105766;1252;73721;-74
2023/01/24 08:53:30;;;;;;;32.90;17.90;;;;;;;-1.71;83.15;101866.54;105877;1253;69451;-76
2023/01/24 08:56:02;;;;;;;31.40;19.20;;;;;;;-1.71;83.35;101864.79;106147;1250;73879;-75
2023/01/24 08:58:33;;;;;;;28.90;19.20;;;;;;;-1.71;83.27;101859.59;106121;1251;60517;-75
2023/01/24 09:01:08;;;;;;;36.10;20.20;;;;;;;-1.73;83.03;101857.73;105803;1256;61786;-75
2023/01/24 09:03:37;;;;;;;34.30;18.90;;;;;;;-1.65;82.85;101858.40;105815;1250;74200;-76
2023/01/24 09:06:06;;;;;;;31.80;19.40;;;;;;;-1.59;82.65;101851.45;105797;1250;69911;-75
2023/01/24 09:08:34;;;;;;;25.70;18.30;;;;;;;-1.59;82.77;101853.58;105908;1251;74046;-75
2023/01/24 09:11:04;;;;;;;32.80;20.20;;;;;;;-1.60;82.77;101854.25;105922;1250;60619;-75
2023/01/24 09:13:32;;;;;;;33.60;19.10;;;;;;;-1.57;82.76;101851.40;106191;1256;60543;-75
2023/01/24 09:16:01;;;;;;;31.70;19.80;;;;;;;-1.56;82.61;101846.35;106669;1253;72814;-76
2023/01/24 09:18:29;;;;;;;33.10;17.70;;;;;;;-1.56;82.55;101845.48;105924;1250;70954;-76
2023/01/24 09:21:02;;;;;;;28.70;15.70;;;;;;;-1.47;82.13;101840.58;105741;1249;72882;-75
2023/01/24 09:23:30;;;;;;;27.20;16.30;;;;;;;-1.38;81.78;101841.72;105873;1253;60539;-75
2023/01/24 09:25:58;;;;;;;25.60;15.70;;;;;;;-1.39;81.62;101840.20;105771;1256;61326;-75
2023/01/24 09:28:27;;;;;;;23.90;17.00;;;;;;;-1.42;81.73;101840.43;105838;1256;75235;-77
2023/01/24 09:30:55;;;;;;;28.20;17.20;;;;;;;-1.42;81.84;101839.39;106202;1256;68097;-77
2023/01/24 09:33:23;;;;;;;31.30;18.80;;;;;;;-1.43;81.53;101839.08;106323;1251;71197;-75
2023/01/24 09:35:56;;;;;;;30.00;17.80;;;;;;;-1.44;81.61;101840.48;106359;1250;59249;-76
2023/01/24 09:38:27;;;;;;;27.80;15.90;;;;;;;-1.41;81.57;101840.05;106075;1255;60276;-76
2023/01/24 09:41:07;;;;;;;26.70;16.30;;;;;;;-1.26;81.32;101837.59;105989;1250;73081;-75
2023/01/24 09:43:47;;;;;;;26.40;17.50;;;;;;;-1.09;80.96;101833.30;105870;1253;69917;-76
2023/01/24 09:46:38;;;;;;;29.00;17.80;;;;;;;-1.07;81.18;101831.33;105754;1250;72155;-75
2023/01/24 09:49:35;;;;;;;33.30;21.50;;;;;;;-1.08;80.94;101828.40;105788;1250;60539;-77
2023/01/24 09:52:05;;;;;;;32.90;21.50;;;;;;;-1.12;80.89;101825.05;105999;1253;60463;-76
2023/01/24 09:54:37;;;;;;;33.60;21.30;;;;;;;-1.16;80.83;101824.45;105469;1250;74610;-75
2023/01/24 09:57:34;;;;;;;36.80;22.00;;;;;;;-1.20;80.81;101828.20;105736;1256;69229;-76
2023/01/24 10:00:10;;;;;;;32.00;19.10;;;;;;;-1.24;80.94;101831.08;105578;1250;73726;-75
2023/01/24 10:02:39;;;;;;;26.30;17.80;;;;;;;-1.14;80.53;101830.32;105955;1251;62236;-76
2023/01/24 10:05:14;;;;;;;33.90;18.50;;;;;;;-1.14;80.55;101828.75;105779;1257;60439;-76
2023/01/24 10:07:56;;;;;;;32.60;20.70;;;;;;;-1.22;80.58;101830.17;105925;1251;72080;-76
2023/01/24 10:10:42;;;;;;;30.90;20.70;;;;;;;-1.28;80.66;101830.69;105843;1255;70613;-74
2023/01/24 10:13:31;;;;;;;29.90;19.80;;;;;;;-1.30;81.02;101827.27;106369;1256;71760;-74
2023/01/24 10:15:59;;;;;;;34.20;22.10;;;;;;;-1.33;80.99;101823.17;108185;1250;60593;-75
2023/01/24 10:18:37;;;;;;;33.90;21.40;;;;;;;-1.34;80.93;101819.88;107049;1253;60848;-74
2023/01/24 10:21:43;;;;;;;37.10;24.70;;;;;;;-1.21;80.90;101811.88;105791;1259;73482;-76
2023/01/24 10:24:14;;;;;;;40.60;24.50;;;;;;;-1.10;80.91;101809.16;106009;1250;70841;-74
2023/01/24 10:26:48;;;;;;;36.80;23.90;;;;;;;-1.14;81.00;101804.05;105878;1250;72249;-74
2023/01/24 10:29:26;;;;;;;30.80;19.60;;;;;;;-1.19;81.06;101804.34;105806;1250;60542;-75
2023/01/24 10:32:02;;;;;;;30.30;19.20;;;;;;;-1.26;80.80;101804.39;105824;1250;60470;-74
2023/01/24 10:34:36;;;;;;;27.60;17.90;;;;;;;-1.36;80.93;101799.95;105857;1251;75146;-75
2023/01/24 10:37:17;;;;;;;30.50;18.80;;;;;;;-1.42;80.76;101798.71;105860;1250;70324;-75
2023/01/24 10:39:45;;;;;;;28.80;17.70;;;;;;;-1.36;80.87;101796.29;106133;1256;72108;-75
2023/01/24 10:42:24;;;;;;;32.00;18.60;;;;;;;-1.28;80.61;101794.35;107099;1251;60872;-75
2023/01/24 10:44:54;;;;;;;31.40;17.80;;;;;;;-1.29;80.98;101788.83;106999;1251;60409;-75
2023/01/24 10:47:44;;;;;;;29.70;19.70;;;;;;;-1.29;81.26;101786.37;105846;1254;74095;-75
2023/01/24 10:50:15;;;;;;;38.30;20.60;;;;;;;-1.31;81.08;101784.70;105763;1257;68687;-76
2023/01/24 10:52:43;;;;;;;30.00;19.90;;;;;;;-1.37;81.43;101783.47;105787;1255;70527;-76
2023/01/24 10:55:37;;;;;;;30.20;19.20;;;;;;;-1.42;81.65;101781.49;105989;1251;60546;-76
2023/01/24 10:58:26;;;;;;;34.90;20.50;;;;;;;-1.44;81.63;101780.35;106086;1251;61508;-75
2023/01/24 11:01:18;;;;;;;31.30;19.20;;;;;;;-1.34;81.43;101781.48;106023;1256;74143;-75
2023/01/24 11:03:48;;;;;;;33.40;20.20;;;;;;;-1.33;81.64;101779.36;105898;1254;69354;-77
2023/01/24 11:06:36;;;;;;;34.30;20.80;;;;;;;-1.41;81.72;101774.36;106067;1256;72537;-76
2023/01/24 11:09:15;;;;;;;34.90;22.60;;;;;;;-1.44;82.28;101771.63;106067;1254;60626;-76
2023/01/24 11:11:49;;;;;;;36.70;22.50;;;;;;;-1.42;82.41;101766.91;106251;1253;60889;-77
2023/01/24 11:14:24;;;;;;;38.60;21.20;;;;;;;-1.43;82.41;101765.55;106074;1256;71923;-75
2023/01/24 11:16:57;;;;;;;31.90;20.30;;;;;;;-1.35;82.28;101764.98;105834;1254;69714;-76
2023/01/24 11:19:30;;;;;;;30.50;18.90;;;;;;;-1.27;82.25;101764.94;106151;1252;72756;-76
2023/01/24 11:22:25;;;;;;;33.30;20.30;;;;;;;-1.26;82.54;101764.22;105887;1250;60525;-75
2023/01/24 11:24:58;;;;;;;35.50;20.70;;;;;;;-1.31;82.25;101762.28;105699;1256;60592;-76
2023/01/24 11:27:27;;;;;;;32.10;18.70;;;;;;;-1.38;82.40;101759.66;105836;1254;74319;-76
2023/01/24 11:30:18;;;;;;;33.10;20.70;;;;;;;-1.44;82.48;101758.45;106307;1253;70584;-76
2023/01/24 11:33:01;;;;;;;32.10;17.50;;;;;;;-1.48;82.59;101753.86;106304;1253;73757;-75
2023/01/24 11:35:34;;;;;;;27.90;17.80;;;;;;;-1.35;82.43;101751.95;106192;1251;62511;-76
2023/01/24 11:38:15;;;;;;;25.90;17.60;;;;;;;-1.30;82.41;101752.84;106278;1256;60353;-76
2023/01/24 11:41:03;;;;;;;30.30;18.30;;;;;;;-1.32;82.67;101750.64;106158;1253;72614;-76
2023/01/24 11:43:48;;;;;;;32.70;19.30;;;;;;;-1.34;82.79;101750.69;106048;1256;68232;-76
2023/01/24 11:46:57;;;;;;;37.20;21.60;;;;;;;-1.34;82.90;101745.32;106287;1256;73225;-76
2023/01/24 11:50:14;;;;;;;31.80;18.40;;;;;;;-1.35;82.73;101741.19;106638;1253;60601;-76
2023/01/24 11:52:51;;;;;;;35.50;20.20;;;;;;;-1.17;82.49;101740.48;106053;1256;60522;-75
2023/01/24 11:55:47;;;;;;;32.20;21.40;;;;;;;-1.13;82.45;101739.17;105866;1253;72812;-75
2023/01/24 11:58:15;;;;;;;39.60;23.40;;;;;;;-1.17;82.58;101741.88;105748;1257;69411;-75
2023/01/24 12:01:26;;;;;;;33.80;21.90;;;;;;;-1.22;82.68;101739.94;105711;1257;71768;-76